sensor_id;sensor_type;location;lat;lon;timestamp;P1;durP1;ratioP1;P2;durP2;ratioP2
46589;SDS011;32313;48.722;9.362;2023-12-28T00:01:20;25.63;;;23.00;;
46589;SDS011;32313;48.722;9.362;2023-12-28T00:03:47;26.63;;;23.47;;
46589;SDS011;32313;48.722;9.362;2023-12-28T00:06:13;30.03;;;25.50;;
46589;SDS011;32313;48.722;9.362;2023-12-28T00:08:38;30.33;;;25.23;;
46589;SDS011;32313;48.722;9.362;2023-12-28T00:11:04;35.03;;;26.67;;
46589;SDS011;32313;48.722;9.362;2023-12-28T00:13:30;33.17;;;25.23;;
46589;SDS011;32313;48.722;9.362;2023-12-28T00:15:55;28.07;;;25.10;;
46589;SDS011;32313;48.722;9.362;2023-12-28T00:18:21;28.37;;;24.63;;
46589;SDS011;32313;48.722;9.362;2023-12-28T00:20:47;29.20;;;24.67;;
46589;SDS011;32313;48.722;9.362;2023-12-28T00:23:12;25.23;;;22.73;;
46589;SDS011;32313;48.722;9.362;2023-12-28T00:25:38;24.27;;;21.77;;
46589;SDS011;32313;48.722;9.362;2023-12-28T00:28:04;22.67;;;20.47;;
46589;SDS011;32313;48.722;9.362;2023-12-28T00:30:30;24.30;;;21.67;;
46589;SDS011;32313;48.722;9.362;2023-12-28T00:32:58;22.73;;;20.53;;
46589;SDS011;32313;48.722;9.362;2023-12-28T00:35:24;22.90;;;20.73;;
46589;SDS011;32313;48.722;9.362;2023-12-28T00:37:49;23.07;;;20.87;;
46589;SDS011;32313;48.722;9.362;2023-12-28T00:40:15;21.67;;;19.53;;
46589;SDS011;32313;48.722;9.362;2023-12-28T00:42:41;22.20;;;19.83;;
46589;SDS011;32313;48.722;9.362;2023-12-28T00:45:08;22.40;;;20.30;;
46589;SDS011;32313;48.722;9.362;2023-12-28T00:47:35;22.50;;;20.17;;
46589;SDS011;32313;48.722;9.362;2023-12-28T00:50:01;20.87;;;18.87;;
46589;SDS011;32313;48.722;9.362;2023-12-28T00:52:27;21.93;;;19.63;;
46589;SDS011;32313;48.722;9.362;2023-12-28T00:54:52;21.00;;;18.93;;
46589;SDS011;32313;48.722;9.362;2023-12-28T00:57:18;21.50;;;19.40;;
46589;SDS011;32313;48.722;9.362;2023-12-28T00:59:43;22.43;;;20.10;;
46589;SDS011;32313;48.722;9.362;2023-12-28T01:02:09;22.57;;;20.57;;
46589;SDS011;32313;48.722;9.362;2023-12-28T01:04:35;21.80;;;19.50;;
46589;SDS011;32313;48.722;9.362;2023-12-28T01:07:02;21.60;;;19.70;;
46589;SDS011;32313;48.722;9.362;2023-12-28T01:09:30;21.93;;;19.83;;
46589;SDS011;32313;48.722;9.362;2023-12-28T01:11:57;20.57;;;18.63;;
46589;SDS011;32313;48.722;9.362;2023-12-28T01:14:24;21.63;;;19.70;;
46589;SDS011;32313;48.722;9.362;2023-12-28T01:16:49;22.43;;;20.33;;
46589;SDS011;32313;48.722;9.362;2023-12-28T01:19:16;20.97;;;19.07;;
46589;SDS011;32313;48.722;9.362;2023-12-28T01:21:41;22.10;;;19.73;;
46589;SDS011;32313;48.722;9.362;2023-12-28T01:24:07;21.97;;;19.90;;
46589;SDS011;32313;48.722;9.362;2023-12-28T01:26:33;21.20;;;19.13;;
46589;SDS011;32313;48.722;9.362;2023-12-28T01:28:59;22.90;;;20.67;;
46589;SDS011;32313;48.722;9.362;2023-12-28T01:31:28;20.03;;;18.13;;
46589;SDS011;32313;48.722;9.362;2023-12-28T01:33:54;22.63;;;20.47;;
46589;SDS011;32313;48.722;9.362;2023-12-28T01:36:20;21.17;;;19.07;;
46589;SDS011;32313;48.722;9.362;2023-12-28T01:38:46;21.93;;;19.90;;
46589;SDS011;32313;48.722;9.362;2023-12-28T01:41:13;21.40;;;19.40;;
46589;SDS011;32313;48.722;9.362;2023-12-28T01:43:40;22.83;;;20.83;;
46589;SDS011;32313;48.722;9.362;2023-12-28T01:46:07;21.97;;;20.03;;
46589;SDS011;32313;48.722;9.362;2023-12-28T01:48:37;23.47;;;21.27;;
46589;SDS011;32313;48.722;9.362;2023-12-28T01:51:03;21.70;;;19.60;;
46589;SDS011;32313;48.722;9.362;2023-12-28T01:53:29;23.13;;;20.57;;
46589;SDS011;32313;48.722;9.362;2023-12-28T01:55:55;22.00;;;19.90;;
46589;SDS011;32313;48.722;9.362;2023-12-28T01:58:22;22.60;;;20.40;;
46589;SDS011;32313;48.722;9.362;2023-12-28T02:00:49;22.60;;;20.50;;
46589;SDS011;32313;48.722;9.362;2023-12-28T02:03:15;21.73;;;19.73;;
46589;SDS011;32313;48.722;9.362;2023-12-28T02:05:41;21.10;;;19.10;;
46589;SDS011;32313;48.722;9.362;2023-12-28T02:08:07;22.50;;;20.30;;
46589;SDS011;32313;48.722;9.362;2023-12-28T02:10:32;22.63;;;20.57;;
46589;SDS011;32313;48.722;9.362;2023-12-28T02:12:58;22.20;;;19.97;;
46589;SDS011;32313;48.722;9.362;2023-12-28T02:15:27;21.63;;;19.57;;
46589;SDS011;32313;48.722;9.362;2023-12-28T02:18:00;24.70;;;21.10;;
46589;SDS011;32313;48.722;9.362;2023-12-28T02:20:37;23.17;;;20.97;;
46589;SDS011;32313;48.722;9.362;2023-12-28T02:23:04;21.60;;;19.73;;
46589;SDS011;32313;48.722;9.362;2023-12-28T02:25:31;21.37;;;19.27;;
46589;SDS011;32313;48.722;9.362;2023-12-28T02:27:56;20.77;;;19.00;;
46589;SDS011;32313;48.722;9.362;2023-12-28T02:30:23;20.77;;;18.90;;
46589;SDS011;32313;48.722;9.362;2023-12-28T02:35:57;21.10;;;19.10;;
46589;SDS011;32313;48.722;9.362;2023-12-28T02:38:26;20.60;;;18.70;;
46589;SDS011;32313;48.722;9.362;2023-12-28T02:40:54;21.00;;;19.10;;
46589;SDS011;32313;48.722;9.362;2023-12-28T02:43:21;23.20;;;20.90;;
46589;SDS011;32313;48.722;9.362;2023-12-28T02:45:47;23.40;;;20.90;;
46589;SDS011;32313;48.722;9.362;2023-12-28T02:48:12;22.30;;;20.17;;
46589;SDS011;32313;48.722;9.362;2023-12-28T02:50:38;22.83;;;20.60;;
46589;SDS011;32313;48.722;9.362;2023-12-28T02:53:04;23.07;;;20.97;;
46589;SDS011;32313;48.722;9.362;2023-12-28T02:55:30;21.67;;;19.67;;
46589;SDS011;32313;48.722;9.362;2023-12-28T02:57:56;20.50;;;18.50;;
46589;SDS011;32313;48.722;9.362;2023-12-28T03:00:26;22.17;;;20.20;;
46589;SDS011;32313;48.722;9.362;2023-12-28T03:02:51;22.10;;;20.13;;
46589;SDS011;32313;48.722;9.362;2023-12-28T03:05:17;21.20;;;19.40;;
46589;SDS011;32313;48.722;9.362;2023-12-28T03:07:43;20.90;;;19.10;;
46589;SDS011;32313;48.722;9.362;2023-12-28T03:10:09;21.70;;;19.73;;
46589;SDS011;32313;48.722;9.362;2023-12-28T03:12:37;21.70;;;19.47;;
46589;SDS011;32313;48.722;9.362;2023-12-28T03:15:03;21.03;;;19.17;;
46589;SDS011;32313;48.722;9.362;2023-12-28T03:17:29;21.00;;;19.20;;
46589;SDS011;32313;48.722;9.362;2023-12-28T03:19:56;21.00;;;19.07;;
46589;SDS011;32313;48.722;9.362;2023-12-28T03:22:23;21.77;;;19.97;;
46589;SDS011;32313;48.722;9.362;2023-12-28T03:24:50;22.00;;;19.47;;
46589;SDS011;32313;48.722;9.362;2023-12-28T03:27:15;21.37;;;19.53;;
46589;SDS011;32313;48.722;9.362;2023-12-28T03:29:41;20.27;;;18.53;;
46589;SDS011;32313;48.722;9.362;2023-12-28T03:32:09;20.83;;;18.93;;
46589;SDS011;32313;48.722;9.362;2023-12-28T03:34:34;20.87;;;18.93;;
46589;SDS011;32313;48.722;9.362;2023-12-28T03:37:00;20.90;;;18.90;;
46589;SDS011;32313;48.722;9.362;2023-12-28T03:39:26;19.80;;;18.10;;
46589;SDS011;32313;48.722;9.362;2023-12-28T03:41:53;20.67;;;18.87;;
46589;SDS011;32313;48.722;9.362;2023-12-28T03:44:20;20.57;;;18.77;;
46589;SDS011;32313;48.722;9.362;2023-12-28T03:46:49;21.33;;;19.40;;
46589;SDS011;32313;48.722;9.362;2023-12-28T03:49:19;20.27;;;18.53;;
46589;SDS011;32313;48.722;9.362;2023-12-28T03:51:47;21.17;;;19.20;;
46589;SDS011;32313;48.722;9.362;2023-12-28T03:54:17;20.00;;;18.20;;
46589;SDS011;32313;48.722;9.362;2023-12-28T03:56:44;21.57;;;19.47;;
46589;SDS011;32313;48.722;9.362;2023-12-28T03:59:10;20.50;;;18.57;;
46589;SDS011;32313;48.722;9.362;2023-12-28T04:01:36;21.67;;;19.67;;
46589;SDS011;32313;48.722;9.362;2023-12-28T04:04:02;21.67;;;19.67;;
46589;SDS011;32313;48.722;9.362;2023-12-28T04:06:28;21.13;;;19.13;;
46589;SDS011;32313;48.722;9.362;2023-12-28T04:08:56;22.73;;;20.27;;
46589;SDS011;32313;48.722;9.362;2023-12-28T04:11:22;23.43;;;21.13;;
46589;SDS011;32313;48.722;9.362;2023-12-28T04:13:48;23.37;;;20.93;;
46589;SDS011;32313;48.722;9.362;2023-12-28T04:16:14;23.27;;;20.77;;
46589;SDS011;32313;48.722;9.362;2023-12-28T04:18:43;24.07;;;21.60;;
46589;SDS011;32313;48.722;9.362;2023-12-28T04:21:13;23.97;;;20.97;;
46589;SDS011;32313;48.722;9.362;2023-12-28T04:23:40;21.40;;;19.20;;
46589;SDS011;32313;48.722;9.362;2023-12-28T04:26:06;22.43;;;20.37;;
46589;SDS011;32313;48.722;9.362;2023-12-28T04:28:32;21.30;;;19.50;;
46589;SDS011;32313;48.722;9.362;2023-12-28T04:31:03;20.27;;;18.47;;
46589;SDS011;32313;48.722;9.362;2023-12-28T04:33:30;20.17;;;18.07;;
46589;SDS011;32313;48.722;9.362;2023-12-28T04:35:56;20.70;;;18.70;;
46589;SDS011;32313;48.722;9.362;2023-12-28T04:38:22;19.40;;;17.67;;
46589;SDS011;32313;48.722;9.362;2023-12-28T04:40:48;20.03;;;18.33;;
46589;SDS011;32313;48.722;9.362;2023-12-28T04:43:14;19.53;;;17.73;;
46589;SDS011;32313;48.722;9.362;2023-12-28T04:45:40;19.77;;;17.97;;
46589;SDS011;32313;48.722;9.362;2023-12-28T04:48:06;19.13;;;17.33;;
46589;SDS011;32313;48.722;9.362;2023-12-28T04:50:45;21.37;;;19.17;;
46589;SDS011;32313;48.722;9.362;2023-12-28T04:53:11;21.30;;;19.03;;
46589;SDS011;32313;48.722;9.362;2023-12-28T04:55:37;22.13;;;19.87;;
46589;SDS011;32313;48.722;9.362;2023-12-28T04:58:02;21.33;;;19.10;;
46589;SDS011;32313;48.722;9.362;2023-12-28T05:00:28;20.13;;;18.10;;
46589;SDS011;32313;48.722;9.362;2023-12-28T05:02:54;20.40;;;18.33;;
46589;SDS011;32313;48.722;9.362;2023-12-28T05:05:20;20.07;;;18.20;;
46589;SDS011;32313;48.722;9.362;2023-12-28T05:07:47;22.77;;;19.67;;
46589;SDS011;32313;48.722;9.362;2023-12-28T05:10:12;22.60;;;20.47;;
46589;SDS011;32313;48.722;9.362;2023-12-28T05:12:38;21.57;;;19.47;;
46589;SDS011;32313;48.722;9.362;2023-12-28T05:15:04;21.03;;;18.90;;
46589;SDS011;32313;48.722;9.362;2023-12-28T05:17:30;20.60;;;18.60;;
46589;SDS011;32313;48.722;9.362;2023-12-28T05:19:56;20.93;;;18.93;;
46589;SDS011;32313;48.722;9.362;2023-12-28T05:22:22;20.37;;;18.57;;
46589;SDS011;32313;48.722;9.362;2023-12-28T05:24:47;19.83;;;18.03;;
46589;SDS011;32313;48.722;9.362;2023-12-28T05:27:13;19.70;;;17.77;;
46589;SDS011;32313;48.722;9.362;2023-12-28T05:29:39;18.33;;;16.53;;
46589;SDS011;32313;48.722;9.362;2023-12-28T05:32:05;18.77;;;17.20;;
46589;SDS011;32313;48.722;9.362;2023-12-28T05:34:31;18.90;;;16.97;;
46589;SDS011;32313;48.722;9.362;2023-12-28T05:36:56;18.63;;;16.93;;
46589;SDS011;32313;48.722;9.362;2023-12-28T05:39:22;17.53;;;16.00;;
46589;SDS011;32313;48.722;9.362;2023-12-28T05:41:48;17.60;;;16.07;;
46589;SDS011;32313;48.722;9.362;2023-12-28T05:44:16;18.90;;;17.27;;
46589;SDS011;32313;48.722;9.362;2023-12-28T05:46:42;18.90;;;17.07;;
46589;SDS011;32313;48.722;9.362;2023-12-28T05:49:08;18.43;;;16.73;;
46589;SDS011;32313;48.722;9.362;2023-12-28T05:51:40;19.13;;;17.33;;
46589;SDS011;32313;48.722;9.362;2023-12-28T05:54:09;17.67;;;16.03;;
46589;SDS011;32313;48.722;9.362;2023-12-28T05:56:35;19.23;;;17.17;;
46589;SDS011;32313;48.722;9.362;2023-12-28T05:59:01;21.27;;;19.17;;
46589;SDS011;32313;48.722;9.362;2023-12-28T06:01:27;19.87;;;18.03;;
46589;SDS011;32313;48.722;9.362;2023-12-28T06:03:52;18.60;;;16.90;;
46589;SDS011;32313;48.722;9.362;2023-12-28T06:06:19;19.23;;;17.23;;
46589;SDS011;32313;48.722;9.362;2023-12-28T06:08:45;19.07;;;17.07;;
46589;SDS011;32313;48.722;9.362;2023-12-28T06:11:11;18.63;;;16.77;;
46589;SDS011;32313;48.722;9.362;2023-12-28T06:13:37;17.47;;;15.70;;
46589;SDS011;32313;48.722;9.362;2023-12-28T06:16:02;16.43;;;15.03;;
46589;SDS011;32313;48.722;9.362;2023-12-28T06:18:28;17.70;;;15.97;;
46589;SDS011;32313;48.722;9.362;2023-12-28T06:20:54;18.50;;;16.60;;
46589;SDS011;32313;48.722;9.362;2023-12-28T06:23:20;19.60;;;17.50;;
46589;SDS011;32313;48.722;9.362;2023-12-28T06:25:46;18.43;;;16.63;;
46589;SDS011;32313;48.722;9.362;2023-12-28T06:28:11;18.07;;;16.20;;
46589;SDS011;32313;48.722;9.362;2023-12-28T06:30:37;18.60;;;16.80;;
46589;SDS011;32313;48.722;9.362;2023-12-28T06:33:04;16.97;;;15.37;;
46589;SDS011;32313;48.722;9.362;2023-12-28T06:35:30;18.30;;;16.50;;
46589;SDS011;32313;48.722;9.362;2023-12-28T06:37:56;16.77;;;15.17;;
46589;SDS011;32313;48.722;9.362;2023-12-28T06:40:21;17.03;;;15.37;;
46589;SDS011;32313;48.722;9.362;2023-12-28T06:42:47;17.13;;;15.37;;
46589;SDS011;32313;48.722;9.362;2023-12-28T06:45:13;16.23;;;14.93;;
46589;SDS011;32313;48.722;9.362;2023-12-28T06:47:39;16.63;;;15.10;;
46589;SDS011;32313;48.722;9.362;2023-12-28T06:50:05;16.93;;;15.43;;
46589;SDS011;32313;48.722;9.362;2023-12-28T06:52:31;16.90;;;15.30;;
46589;SDS011;32313;48.722;9.362;2023-12-28T06:54:57;15.60;;;14.23;;
46589;SDS011;32313;48.722;9.362;2023-12-28T06:57:22;16.00;;;14.50;;
46589;SDS011;32313;48.722;9.362;2023-12-28T06:59:48;14.53;;;13.30;;
46589;SDS011;32313;48.722;9.362;2023-12-28T07:02:14;16.20;;;14.60;;
46589;SDS011;32313;48.722;9.362;2023-12-28T07:04:39;15.67;;;14.17;;
46589;SDS011;32313;48.722;9.362;2023-12-28T07:07:05;16.97;;;15.40;;
46589;SDS011;32313;48.722;9.362;2023-12-28T07:09:31;15.73;;;14.23;;
46589;SDS011;32313;48.722;9.362;2023-12-28T07:11:56;16.13;;;14.63;;
46589;SDS011;32313;48.722;9.362;2023-12-28T07:14:22;15.00;;;13.60;;
46589;SDS011;32313;48.722;9.362;2023-12-28T07:16:48;15.00;;;13.50;;
46589;SDS011;32313;48.722;9.362;2023-12-28T07:19:13;15.23;;;13.73;;
46589;SDS011;32313;48.722;9.362;2023-12-28T07:21:39;15.03;;;13.63;;
46589;SDS011;32313;48.722;9.362;2023-12-28T07:24:05;14.83;;;13.53;;
46589;SDS011;32313;48.722;9.362;2023-12-28T07:26:30;15.77;;;14.20;;
46589;SDS011;32313;48.722;9.362;2023-12-28T07:28:56;15.43;;;13.83;;
46589;SDS011;32313;48.722;9.362;2023-12-28T07:31:25;15.67;;;13.97;;
46589;SDS011;32313;48.722;9.362;2023-12-28T07:33:51;13.80;;;12.57;;
46589;SDS011;32313;48.722;9.362;2023-12-28T07:36:17;14.13;;;12.83;;
46589;SDS011;32313;48.722;9.362;2023-12-28T07:38:43;13.53;;;12.37;;
46589;SDS011;32313;48.722;9.362;2023-12-28T07:41:09;14.03;;;12.63;;
46589;SDS011;32313;48.722;9.362;2023-12-28T07:43:35;14.40;;;13.00;;
46589;SDS011;32313;48.722;9.362;2023-12-28T07:46:01;14.17;;;12.73;;
46589;SDS011;32313;48.722;9.362;2023-12-28T07:48:27;12.90;;;11.73;;
46589;SDS011;32313;48.722;9.362;2023-12-28T07:50:55;14.30;;;12.77;;
46589;SDS011;32313;48.722;9.362;2023-12-28T07:53:24;13.87;;;12.43;;
46589;SDS011;32313;48.722;9.362;2023-12-28T07:55:50;13.53;;;12.23;;
46589;SDS011;32313;48.722;9.362;2023-12-28T07:58:15;13.63;;;12.30;;
46589;SDS011;32313;48.722;9.362;2023-12-28T08:00:41;13.07;;;11.90;;
46589;SDS011;32313;48.722;9.362;2023-12-28T08:03:07;12.63;;;11.57;;
46589;SDS011;32313;48.722;9.362;2023-12-28T08:05:32;12.80;;;11.60;;
46589;SDS011;32313;48.722;9.362;2023-12-28T08:07:58;13.13;;;11.73;;
46589;SDS011;32313;48.722;9.362;2023-12-28T08:10:24;13.10;;;11.87;;
46589;SDS011;32313;48.722;9.362;2023-12-28T08:12:49;13.87;;;12.43;;
46589;SDS011;32313;48.722;9.362;2023-12-28T08:15:15;14.97;;;12.70;;
46589;SDS011;32313;48.722;9.362;2023-12-28T08:17:41;16.23;;;13.63;;
46589;SDS011;32313;48.722;9.362;2023-12-28T08:20:06;15.73;;;14.13;;
46589;SDS011;32313;48.722;9.362;2023-12-28T08:22:32;15.20;;;12.57;;
46589;SDS011;32313;48.722;9.362;2023-12-28T08:24:58;14.83;;;12.77;;
46589;SDS011;32313;48.722;9.362;2023-12-28T08:27:27;12.77;;;11.57;;
46589;SDS011;32313;48.722;9.362;2023-12-28T08:29:52;14.27;;;12.83;;
46589;SDS011;32313;48.722;9.362;2023-12-28T08:32:18;12.97;;;11.73;;
46589;SDS011;32313;48.722;9.362;2023-12-28T08:34:44;15.10;;;13.50;;
46589;SDS011;32313;48.722;9.362;2023-12-28T08:37:11;14.83;;;13.33;;
46589;SDS011;32313;48.722;9.362;2023-12-28T08:39:37;16.03;;;14.17;;
46589;SDS011;32313;48.722;9.362;2023-12-28T08:42:02;17.67;;;14.47;;
46589;SDS011;32313;48.722;9.362;2023-12-28T08:44:28;16.83;;;14.33;;
46589;SDS011;32313;48.722;9.362;2023-12-28T08:46:54;14.37;;;12.87;;
46589;SDS011;32313;48.722;9.362;2023-12-28T08:49:20;14.47;;;12.97;;
46589;SDS011;32313;48.722;9.362;2023-12-28T08:51:47;15.07;;;13.07;;
46589;SDS011;32313;48.722;9.362;2023-12-28T08:54:13;17.70;;;14.50;;
46589;SDS011;32313;48.722;9.362;2023-12-28T08:56:39;21.60;;;16.70;;
46589;SDS011;32313;48.722;9.362;2023-12-28T08:59:05;22.97;;;16.90;;
46589;SDS011;32313;48.722;9.362;2023-12-28T09:01:31;16.10;;;13.27;;
46589;SDS011;32313;48.722;9.362;2023-12-28T09:03:57;13.40;;;12.10;;
46589;SDS011;32313;48.722;9.362;2023-12-28T09:06:23;13.17;;;11.63;;
46589;SDS011;32313;48.722;9.362;2023-12-28T09:08:50;13.50;;;11.13;;
46589;SDS011;32313;48.722;9.362;2023-12-28T09:11:17;12.87;;;11.63;;
46589;SDS011;32313;48.722;9.362;2023-12-28T09:13:43;13.67;;;11.57;;
46589;SDS011;32313;48.722;9.362;2023-12-28T09:16:10;15.73;;;12.40;;
46589;SDS011;32313;48.722;9.362;2023-12-28T09:18:38;13.20;;;11.90;;
46589;SDS011;32313;48.722;9.362;2023-12-28T09:21:05;13.67;;;12.40;;
46589;SDS011;32313;48.722;9.362;2023-12-28T09:23:31;13.57;;;12.27;;
46589;SDS011;32313;48.722;9.362;2023-12-28T09:26:01;14.87;;;13.27;;
46589;SDS011;32313;48.722;9.362;2023-12-28T09:28:31;14.83;;;13.13;;
46589;SDS011;32313;48.722;9.362;2023-12-28T09:30:57;13.70;;;12.40;;
46589;SDS011;32313;48.722;9.362;2023-12-28T09:33:23;13.40;;;12.10;;
46589;SDS011;32313;48.722;9.362;2023-12-28T09:35:49;12.97;;;11.77;;
46589;SDS011;32313;48.722;9.362;2023-12-28T09:38:15;12.57;;;11.43;;
46589;SDS011;32313;48.722;9.362;2023-12-28T09:40:43;12.73;;;11.53;;
46589;SDS011;32313;48.722;9.362;2023-12-28T09:43:18;13.10;;;11.87;;
46589;SDS011;32313;48.722;9.362;2023-12-28T09:45:51;13.10;;;11.50;;
46589;SDS011;32313;48.722;9.362;2023-12-28T09:48:18;15.77;;;13.33;;
46589;SDS011;32313;48.722;9.362;2023-12-28T09:50:45;16.93;;;13.30;;
46589;SDS011;32313;48.722;9.362;2023-12-28T09:53:15;13.93;;;12.40;;
46589;SDS011;32313;48.722;9.362;2023-12-28T09:55:42;15.70;;;13.40;;
46589;SDS011;32313;48.722;9.362;2023-12-28T09:58:08;19.30;;;13.83;;
46589;SDS011;32313;48.722;9.362;2023-12-28T10:00:37;15.87;;;12.67;;
46589;SDS011;32313;48.722;9.362;2023-12-28T10:03:03;12.67;;;11.37;;
46589;SDS011;32313;48.722;9.362;2023-12-28T10:05:29;14.83;;;11.37;;
46589;SDS011;32313;48.722;9.362;2023-12-28T10:07:55;13.83;;;12.30;;
46589;SDS011;32313;48.722;9.362;2023-12-28T10:10:21;12.53;;;11.23;;
46589;SDS011;32313;48.722;9.362;2023-12-28T10:12:47;11.67;;;10.60;;
46589;SDS011;32313;48.722;9.362;2023-12-28T10:15:13;11.43;;;10.43;;
46589;SDS011;32313;48.722;9.362;2023-12-28T10:17:38;12.03;;;10.93;;
46589;SDS011;32313;48.722;9.362;2023-12-28T10:20:05;13.23;;;9.93;;
46589;SDS011;32313;48.722;9.362;2023-12-28T10:22:34;12.07;;;10.90;;
46589;SDS011;32313;48.722;9.362;2023-12-28T10:25:02;12.07;;;10.87;;
46589;SDS011;32313;48.722;9.362;2023-12-28T10:27:28;13.33;;;11.97;;
46589;SDS011;32313;48.722;9.362;2023-12-28T10:29:57;13.47;;;12.17;;
46589;SDS011;32313;48.722;9.362;2023-12-28T10:32:23;15.50;;;11.93;;
46589;SDS011;32313;48.722;9.362;2023-12-28T10:34:53;11.93;;;10.73;;
46589;SDS011;32313;48.722;9.362;2023-12-28T10:37:19;10.97;;;9.90;;
46589;SDS011;32313;48.722;9.362;2023-12-28T10:39:47;11.57;;;10.57;;
46589;SDS011;32313;48.722;9.362;2023-12-28T10:42:16;11.37;;;10.27;;
46589;SDS011;32313;48.722;9.362;2023-12-28T10:45:01;12.37;;;10.93;;
46589;SDS011;32313;48.722;9.362;2023-12-28T10:47:29;10.47;;;9.23;;
46589;SDS011;32313;48.722;9.362;2023-12-28T10:50:16;11.33;;;10.10;;
46589;SDS011;32313;48.722;9.362;2023-12-28T10:52:43;11.53;;;10.03;;
46589;SDS011;32313;48.722;9.362;2023-12-28T10:55:34;11.33;;;10.30;;
46589;SDS011;32313;48.722;9.362;2023-12-28T10:58:21;12.40;;;10.50;;
46589;SDS011;32313;48.722;9.362;2023-12-28T11:01:02;11.97;;;10.73;;
46589;SDS011;32313;48.722;9.362;2023-12-28T11:03:34;14.23;;;12.73;;
46589;SDS011;32313;48.722;9.362;2023-12-28T11:06:04;13.40;;;12.00;;
46589;SDS011;32313;48.722;9.362;2023-12-28T11:08:32;12.53;;;11.23;;
46589;SDS011;32313;48.722;9.362;2023-12-28T11:10:59;12.53;;;11.43;;
46589;SDS011;32313;48.722;9.362;2023-12-28T11:13:28;12.83;;;11.07;;
46589;SDS011;32313;48.722;9.362;2023-12-28T11:15:56;11.37;;;10.27;;
46589;SDS011;32313;48.722;9.362;2023-12-28T11:18:23;10.90;;;9.90;;
46589;SDS011;32313;48.722;9.362;2023-12-28T11:20:54;12.17;;;10.97;;
46589;SDS011;32313;48.722;9.362;2023-12-28T11:23:20;11.97;;;10.63;;
46589;SDS011;32313;48.722;9.362;2023-12-28T11:25:46;11.60;;;10.43;;
46589;SDS011;32313;48.722;9.362;2023-12-28T11:28:12;12.10;;;10.33;;
46589;SDS011;32313;48.722;9.362;2023-12-28T11:30:41;11.47;;;10.37;;
46589;SDS011;32313;48.722;9.362;2023-12-28T11:33:07;12.33;;;11.17;;
46589;SDS011;32313;48.722;9.362;2023-12-28T11:35:36;12.17;;;10.97;;
46589;SDS011;32313;48.722;9.362;2023-12-28T11:38:03;11.97;;;10.77;;
46589;SDS011;32313;48.722;9.362;2023-12-28T11:40:39;12.53;;;11.33;;
46589;SDS011;32313;48.722;9.362;2023-12-28T11:43:18;12.70;;;11.27;;
46589;SDS011;32313;48.722;9.362;2023-12-28T11:45:49;14.70;;;11.13;;
46589;SDS011;32313;48.722;9.362;2023-12-28T11:48:23;12.67;;;11.37;;
46589;SDS011;32313;48.722;9.362;2023-12-28T11:50:54;12.57;;;11.27;;
46589;SDS011;32313;48.722;9.362;2023-12-28T11:53:24;15.90;;;11.77;;
46589;SDS011;32313;48.722;9.362;2023-12-28T11:55:51;14.10;;;12.53;;
46589;SDS011;32313;48.722;9.362;2023-12-28T11:58:18;15.13;;;12.77;;
46589;SDS011;32313;48.722;9.362;2023-12-28T12:00:44;15.07;;;13.40;;
46589;SDS011;32313;48.722;9.362;2023-12-28T12:03:10;15.60;;;12.83;;
46589;SDS011;32313;48.722;9.362;2023-12-28T12:05:37;15.13;;;13.57;;
46589;SDS011;32313;48.722;9.362;2023-12-28T12:08:03;15.70;;;12.70;;
46589;SDS011;32313;48.722;9.362;2023-12-28T12:10:30;13.57;;;12.17;;
46589;SDS011;32313;48.722;9.362;2023-12-28T12:12:57;16.57;;;12.60;;
46589;SDS011;32313;48.722;9.362;2023-12-28T12:15:24;14.83;;;12.30;;
46589;SDS011;32313;48.722;9.362;2023-12-28T12:17:50;13.40;;;12.03;;
46589;SDS011;32313;48.722;9.362;2023-12-28T12:20:16;13.43;;;12.13;;
46589;SDS011;32313;48.722;9.362;2023-12-28T12:22:42;13.23;;;11.30;;
46589;SDS011;32313;48.722;9.362;2023-12-28T12:25:07;12.97;;;11.70;;
46589;SDS011;32313;48.722;9.362;2023-12-28T12:27:34;12.90;;;11.47;;
46589;SDS011;32313;48.722;9.362;2023-12-28T12:30:01;12.43;;;11.23;;
46589;SDS011;32313;48.722;9.362;2023-12-28T12:32:28;12.77;;;11.47;;
46589;SDS011;32313;48.722;9.362;2023-12-28T12:34:54;13.87;;;12.47;;
46589;SDS011;32313;48.722;9.362;2023-12-28T12:37:21;14.73;;;13.20;;
46589;SDS011;32313;48.722;9.362;2023-12-28T12:39:47;13.80;;;12.30;;
46589;SDS011;32313;48.722;9.362;2023-12-28T12:42:14;15.17;;;13.67;;
46589;SDS011;32313;48.722;9.362;2023-12-28T12:44:39;13.70;;;12.17;;
46589;SDS011;32313;48.722;9.362;2023-12-28T12:47:06;16.73;;;12.43;;
46589;SDS011;32313;48.722;9.362;2023-12-28T12:49:32;14.20;;;12.50;;
46589;SDS011;32313;48.722;9.362;2023-12-28T12:51:58;13.70;;;12.40;;
46589;SDS011;32313;48.722;9.362;2023-12-28T12:54:24;13.50;;;12.17;;
46589;SDS011;32313;48.722;9.362;2023-12-28T12:56:51;16.97;;;13.40;;
46589;SDS011;32313;48.722;9.362;2023-12-28T12:59:18;14.33;;;12.90;;
46589;SDS011;32313;48.722;9.362;2023-12-28T13:01:44;15.20;;;12.77;;
46589;SDS011;32313;48.722;9.362;2023-12-28T13:04:10;14.07;;;11.73;;
46589;SDS011;32313;48.722;9.362;2023-12-28T13:06:37;16.50;;;13.70;;
46589;SDS011;32313;48.722;9.362;2023-12-28T13:09:04;15.53;;;13.17;;
46589;SDS011;32313;48.722;9.362;2023-12-28T13:11:32;16.07;;;13.33;;
46589;SDS011;32313;48.722;9.362;2023-12-28T13:14:00;16.07;;;13.53;;
46589;SDS011;32313;48.722;9.362;2023-12-28T13:16:26;19.00;;;13.17;;
46589;SDS011;32313;48.722;9.362;2023-12-28T13:18:52;16.03;;;14.33;;
46589;SDS011;32313;48.722;9.362;2023-12-28T13:21:17;21.07;;;14.93;;
46589;SDS011;32313;48.722;9.362;2023-12-28T13:23:43;17.03;;;15.33;;
46589;SDS011;32313;48.722;9.362;2023-12-28T13:26:09;16.87;;;14.30;;
46589;SDS011;32313;48.722;9.362;2023-12-28T13:28:35;15.03;;;13.53;;
46589;SDS011;32313;48.722;9.362;2023-12-28T13:31:00;19.80;;;14.77;;
46589;SDS011;32313;48.722;9.362;2023-12-28T13:33:26;16.93;;;14.83;;
46589;SDS011;32313;48.722;9.362;2023-12-28T13:35:52;16.20;;;14.50;;
46589;SDS011;32313;48.722;9.362;2023-12-28T13:38:17;19.27;;;16.37;;
46589;SDS011;32313;48.722;9.362;2023-12-28T13:40:43;17.10;;;15.30;;
46589;SDS011;32313;48.722;9.362;2023-12-28T13:43:09;17.97;;;15.03;;
46589;SDS011;32313;48.722;9.362;2023-12-28T13:45:35;16.87;;;14.93;;
46589;SDS011;32313;48.722;9.362;2023-12-28T13:48:01;21.70;;;17.23;;
46589;SDS011;32313;48.722;9.362;2023-12-28T13:50:27;18.80;;;16.47;;
46589;SDS011;32313;48.722;9.362;2023-12-28T13:52:53;17.07;;;15.27;;
46589;SDS011;32313;48.722;9.362;2023-12-28T13:55:19;18.03;;;15.00;;
46589;SDS011;32313;48.722;9.362;2023-12-28T13:57:45;17.03;;;15.23;;
46589;SDS011;32313;48.722;9.362;2023-12-28T14:00:11;17.57;;;15.77;;
46589;SDS011;32313;48.722;9.362;2023-12-28T14:02:37;18.20;;;14.63;;
46589;SDS011;32313;48.722;9.362;2023-12-28T14:05:03;16.73;;;13.37;;
46589;SDS011;32313;48.722;9.362;2023-12-28T14:07:29;16.10;;;13.20;;
46589;SDS011;32313;48.722;9.362;2023-12-28T14:09:54;15.53;;;13.90;;
46589;SDS011;32313;48.722;9.362;2023-12-28T14:12:20;14.87;;;12.23;;
46589;SDS011;32313;48.722;9.362;2023-12-28T14:14:46;15.60;;;13.93;;
46589;SDS011;32313;48.722;9.362;2023-12-28T14:17:11;14.80;;;11.83;;
46589;SDS011;32313;48.722;9.362;2023-12-28T14:19:37;14.33;;;12.83;;
46589;SDS011;32313;48.722;9.362;2023-12-28T14:22:03;13.13;;;11.80;;